sensor_id;sensor_type;location;lat;lon;timestamp;pressure;altitude;pressure_sealevel;temperature;humidity
21826;BME280;11075;47.944;11.776;2022-09-28T00:00:42;93334.69;;;15.78;24.37
21826;BME280;11075;47.944;11.776;2022-09-28T00:03:12;93348.06;;;16.34;23.34
21826;BME280;11075;47.944;11.776;2022-09-28T00:05:39;93358.72;;;16.82;23.04
21826;BME280;11075;47.944;11.776;2022-09-28T00:08:06;93364.72;;;17.27;22.66
21826;BME280;11075;47.944;11.776;2022-09-28T00:10:32;93356.44;;;17.07;22.52
21826;BME280;11075;47.944;11.776;2022-09-28T00:12:59;93354.16;;;16.75;22.70
21826;BME280;11075;47.944;11.776;2022-09-28T00:15:27;93361.56;;;17.02;22.91
21826;BME280;11075;47.944;11.776;2022-09-28T00:17:54;93333.91;;;15.78;24.24
21826;BME280;11075;47.944;11.776;2022-09-28T00:20:21;93327.00;;;14.66;25.04
21826;BME280;11075;47.944;11.776;2022-09-28T00:22:48;93300.13;;;14.13;25.82
21826;BME280;11075;47.944;11.776;2022-09-28T00:25:15;93293.44;;;14.46;25.56
21826;BME280;11075;47.944;11.776;2022-09-28T00:27:42;93262.06;;;12.68;27.48
21826;BME280;11075;47.944;11.776;2022-09-28T00:30:14;93262.50;;;13.10;26.88
21826;BME280;11075;47.944;11.776;2022-09-28T00:32:42;93283.88;;;15.79;24.02
21826;BME280;11075;47.944;11.776;2022-09-28T00:35:09;93266.22;;;14.63;25.31
21826;BME280;11075;47.944;11.776;2022-09-28T00:37:36;93294.53;;;16.31;23.69
21826;BME280;11075;47.944;11.776;2022-09-28T00:40:04;93285.56;;;15.66;24.03
21826;BME280;11075;47.944;11.776;2022-09-28T00:42:30;93301.00;;;16.98;22.60
21826;BME280;11075;47.944;11.776;2022-09-28T00:44:58;93307.25;;;17.45;22.56
21826;BME280;11075;47.944;11.776;2022-09-28T00:50:12;93270.56;;;15.88;23.44
21826;BME280;11075;47.944;11.776;2022-09-28T00:55:38;93233.75;;;13.83;25.98
21826;BME280;11075;47.944;11.776;2022-09-28T00:58:08;93260.16;;;16.47;23.37
21826;BME280;11075;47.944;11.776;2022-09-28T01:00:38;93273.31;;;16.49;23.22
21826;BME280;11075;47.944;11.776;2022-09-28T01:03:07;93276.38;;;17.32;22.18
21826;BME280;11075;47.944;11.776;2022-09-28T01:05:36;93272.38;;;16.90;22.91
21826;BME280;11075;47.944;11.776;2022-09-28T01:08:06;93245.84;;;15.00;24.59
21826;BME280;11075;47.944;11.776;2022-09-28T01:10:33;93269.94;;;17.22;22.22
21826;BME280;11075;47.944;11.776;2022-09-28T01:13:00;93244.38;;;16.08;23.87
21826;BME280;11075;47.944;11.776;2022-09-28T01:15:28;93234.72;;;15.70;24.33
21826;BME280;11075;47.944;11.776;2022-09-28T01:20:50;93207.19;;;14.37;25.90
21826;BME280;11075;47.944;11.776;2022-09-28T01:23:42;93211.09;;;14.81;25.49
21826;BME280;11075;47.944;11.776;2022-09-28T01:32:21;93164.44;;;12.45;27.95
21826;BME280;11075;47.944;11.776;2022-09-28T01:37:41;93164.28;;;13.45;26.67
21826;BME280;11075;47.944;11.776;2022-09-28T01:40:12;93184.34;;;14.38;25.18
21826;BME280;11075;47.944;11.776;2022-09-28T01:42:43;93171.09;;;14.99;24.81
21826;BME280;11075;47.944;11.776;2022-09-28T01:45:26;93183.84;;;15.40;23.97
21826;BME280;11075;47.944;11.776;2022-09-28T01:48:00;93164.69;;;14.27;25.81
21826;BME280;11075;47.944;11.776;2022-09-28T01:50:32;93170.72;;;15.99;23.72
21826;BME280;11075;47.944;11.776;2022-09-28T01:53:06;93166.69;;;14.12;25.16
21826;BME280;11075;47.944;11.776;2022-09-28T01:55:46;93136.84;;;13.43;26.22
21826;BME280;11075;47.944;11.776;2022-09-28T01:58:36;93163.50;;;15.58;23.84
21826;BME280;11075;47.944;11.776;2022-09-28T02:01:12;93159.16;;;15.65;24.10
21826;BME280;11075;47.944;11.776;2022-09-28T02:03:51;93169.00;;;15.51;23.82
21826;BME280;11075;47.944;11.776;2022-09-28T02:06:27;93168.66;;;16.88;23.04
21826;BME280;11075;47.944;11.776;2022-09-28T02:09:02;93158.63;;;15.77;23.92
21826;BME280;11075;47.944;11.776;2022-09-28T02:11:44;93159.28;;;16.42;22.72
21826;BME280;11075;47.944;11.776;2022-09-28T02:14:14;93131.78;;;15.82;23.55
21826;BME280;11075;47.944;11.776;2022-09-28T02:16:47;93140.00;;;16.83;22.42
21826;BME280;11075;47.944;11.776;2022-09-28T02:19:22;93111.44;;;14.99;24.45
21826;BME280;11075;47.944;11.776;2022-09-28T02:21:55;93127.06;;;16.67;22.86
21826;BME280;11075;47.944;11.776;2022-09-28T02:27:08;93110.69;;;16.20;23.09
21826;BME280;11075;47.944;11.776;2022-09-28T02:29:36;93110.03;;;16.63;22.86
21826;BME280;11075;47.944;11.776;2022-09-28T02:32:03;93105.66;;;16.93;22.42
21826;BME280;11075;47.944;11.776;2022-09-28T02:34:30;93079.09;;;14.78;24.62
21826;BME280;11075;47.944;11.776;2022-09-28T02:36:58;93085.78;;;16.26;23.08
21826;BME280;11075;47.944;11.776;2022-09-28T02:39:25;93080.41;;;16.22;22.84
21826;BME280;11075;47.944;11.776;2022-09-28T02:48:05;93074.22;;;16.45;22.24
21826;BME280;11075;47.944;11.776;2022-09-28T02:51:01;93065.53;;;15.76;22.66
21826;BME280;11075;47.944;11.776;2022-09-28T02:53:42;93057.75;;;15.78;23.19
21826;BME280;11075;47.944;11.776;2022-09-28T03:04:34;93047.94;;;15.27;22.84
21826;BME280;11075;47.944;11.776;2022-09-28T03:07:28;93012.00;;;13.51;24.95
21826;BME280;11075;47.944;11.776;2022-09-28T03:12:37;93001.19;;;13.51;25.07
21826;BME280;11075;47.944;11.776;2022-09-28T03:17:48;93001.53;;;14.53;24.41
21826;BME280;11075;47.944;11.776;2022-09-28T03:20:16;93004.72;;;13.96;24.33
21826;BME280;11075;47.944;11.776;2022-09-28T03:22:43;92974.50;;;13.53;25.23
21826;BME280;11075;47.944;11.776;2022-09-28T03:25:30;92972.59;;;12.70;25.90
21826;BME280;11075;47.944;11.776;2022-09-28T03:27:58;92955.22;;;12.71;26.30
21826;BME280;11075;47.944;11.776;2022-09-28T03:30:25;92958.72;;;12.64;26.23
21826;BME280;11075;47.944;11.776;2022-09-28T03:32:57;93004.50;;;15.00;23.59
21826;BME280;11075;47.944;11.776;2022-09-28T03:35:25;92988.25;;;14.25;23.95
21826;BME280;11075;47.944;11.776;2022-09-28T03:37:55;92994.09;;;15.25;23.24
21826;BME280;11075;47.944;11.776;2022-09-28T03:40:24;92983.63;;;14.25;23.95
21826;BME280;11075;47.944;11.776;2022-09-28T03:42:51;92952.25;;;12.41;26.23
21826;BME280;11075;47.944;11.776;2022-09-28T03:45:19;92979.38;;;14.96;23.26
21826;BME280;11075;47.944;11.776;2022-09-28T03:47:48;93011.66;;;16.25;21.94
21826;BME280;11075;47.944;11.776;2022-09-28T03:50:17;92982.69;;;14.77;23.94
21826;BME280;11075;47.944;11.776;2022-09-28T03:52:43;93011.38;;;16.19;21.84
21826;BME280;11075;47.944;11.776;2022-09-28T03:55:10;93006.81;;;16.13;22.69
21826;BME280;11075;47.944;11.776;2022-09-28T03:57:37;92999.94;;;16.51;21.80
21826;BME280;11075;47.944;11.776;2022-09-28T04:00:04;92987.88;;;16.09;22.90
21826;BME280;11075;47.944;11.776;2022-09-28T04:02:38;92984.66;;;15.91;22.58
21826;BME280;11075;47.944;11.776;2022-09-28T04:05:06;92985.28;;;15.75;23.30
21826;BME280;11075;47.944;11.776;2022-09-28T04:07:36;92994.81;;;16.34;22.57
21826;BME280;11075;47.944;11.776;2022-09-28T04:10:03;92956.03;;;13.93;25.34
21826;BME280;11075;47.944;11.776;2022-09-28T04:12:30;92972.63;;;15.38;23.64
21826;BME280;11075;47.944;11.776;2022-09-28T04:14:57;92975.59;;;15.74;23.08
21826;BME280;11075;47.944;11.776;2022-09-28T04:17:24;92972.00;;;15.81;23.16
21826;BME280;11075;47.944;11.776;2022-09-28T04:19:51;92942.78;;;14.06;24.82
21826;BME280;11075;47.944;11.776;2022-09-28T04:22:35;92945.72;;;14.22;24.78
21826;BME280;11075;47.944;11.776;2022-09-28T04:25:03;92965.53;;;15.98;22.76
21826;BME280;11075;47.944;11.776;2022-09-28T04:27:30;92957.78;;;14.89;24.19
21826;BME280;11075;47.944;11.776;2022-09-28T04:30:16;92960.59;;;14.78;24.15
21826;BME280;11075;47.944;11.776;2022-09-28T04:32:47;92983.03;;;15.43;23.78
21826;BME280;11075;47.944;11.776;2022-09-28T04:35:15;92973.44;;;15.35;23.56
21826;BME280;11075;47.944;11.776;2022-09-28T04:37:42;92968.41;;;15.34;23.75
21826;BME280;11075;47.944;11.776;2022-09-28T04:40:10;92965.75;;;15.30;24.16
21826;BME280;11075;47.944;11.776;2022-09-28T04:42:36;92948.66;;;13.97;25.02
21826;BME280;11075;47.944;11.776;2022-09-28T04:45:04;92972.59;;;14.77;24.64
21826;BME280;11075;47.944;11.776;2022-09-28T04:47:34;92938.28;;;12.63;26.79
21826;BME280;11075;47.944;11.776;2022-09-28T04:50:27;92940.09;;;13.54;25.94
21826;BME280;11075;47.944;11.776;2022-09-28T04:53:13;92960.72;;;15.02;24.41
21826;BME280;11075;47.944;11.776;2022-09-28T04:55:39;92963.34;;;14.75;24.61
21826;BME280;11075;47.944;11.776;2022-09-28T04:58:06;92948.91;;;13.69;26.03
21826;BME280;11075;47.944;11.776;2022-09-28T05:00:33;92934.19;;;14.14;25.58
21826;BME280;11075;47.944;11.776;2022-09-28T05:03:26;92971.66;;;15.79;23.22
21826;BME280;11075;47.944;11.776;2022-09-28T05:06:13;92937.72;;;13.63;25.77
21826;BME280;11075;47.944;11.776;2022-09-28T05:08:45;92951.56;;;15.19;23.77
21826;BME280;11075;47.944;11.776;2022-09-28T05:11:14;92934.38;;;13.93;25.17
21826;BME280;11075;47.944;11.776;2022-09-28T05:13:43;92929.25;;;14.43;25.12
21826;BME280;11075;47.944;11.776;2022-09-28T05:16:14;92925.91;;;14.66;24.49
21826;BME280;11075;47.944;11.776;2022-09-28T05:19:14;92926.53;;;13.06;26.19
21826;BME280;11075;47.944;11.776;2022-09-28T05:21:45;92935.25;;;14.61;24.58
21826;BME280;11075;47.944;11.776;2022-09-28T05:24:12;92939.41;;;14.36;25.13
21826;BME280;11075;47.944;11.776;2022-09-28T05:26:42;92968.41;;;16.34;22.76
21826;BME280;11075;47.944;11.776;2022-09-28T05:29:10;92946.78;;;14.32;25.29
21826;BME280;11075;47.944;11.776;2022-09-28T05:31:55;92919.50;;;13.15;26.52
21826;BME280;11075;47.944;11.776;2022-09-28T05:34:33;92940.75;;;15.46;23.88
21826;BME280;11075;47.944;11.776;2022-09-28T05:37:00;92969.94;;;16.98;22.32
21826;BME280;11075;47.944;11.776;2022-09-28T05:39:29;92963.09;;;16.70;22.42
21826;BME280;11075;47.944;11.776;2022-09-28T05:41:56;92937.09;;;14.68;24.81
21826;BME280;11075;47.944;11.776;2022-09-28T05:44:23;92931.03;;;13.78;25.86
21826;BME280;11075;47.944;11.776;2022-09-28T05:46:52;92938.72;;;16.00;23.80
21826;BME280;11075;47.944;11.776;2022-09-28T05:49:21;92928.22;;;15.79;23.36
21826;BME280;11075;47.944;11.776;2022-09-28T05:51:48;92936.16;;;16.36;23.37
21826;BME280;11075;47.944;11.776;2022-09-28T05:54:15;92946.75;;;16.50;22.72
21826;BME280;11075;47.944;11.776;2022-09-28T05:56:44;92935.66;;;15.98;23.74
21826;BME280;11075;47.944;11.776;2022-09-28T05:59:11;92913.69;;;14.81;24.57
21826;BME280;11075;47.944;11.776;2022-09-28T06:01:39;92915.13;;;15.20;24.37
21826;BME280;11075;47.944;11.776;2022-09-28T06:04:08;92932.91;;;16.45;22.96
21826;BME280;11075;47.944;11.776;2022-09-28T06:06:35;92933.25;;;16.04;23.81
21826;BME280;11075;47.944;11.776;2022-09-28T06:09:03;92901.59;;;13.84;26.11
21826;BME280;11075;47.944;11.776;2022-09-28T06:12:03;92922.47;;;15.97;23.66
21826;BME280;11075;47.944;11.776;2022-09-28T06:14:38;92930.13;;;16.88;22.57
21826;BME280;11075;47.944;11.776;2022-09-28T06:17:05;92907.66;;;14.70;25.34
21826;BME280;11075;47.944;11.776;2022-09-28T06:19:32;92925.56;;;15.99;23.43
21826;BME280;11075;47.944;11.776;2022-09-28T06:22:17;92938.47;;;15.91;23.77
21826;BME280;11075;47.944;11.776;2022-09-28T06:24:53;92935.00;;;15.90;23.60
21826;BME280;11075;47.944;11.776;2022-09-28T06:27:22;92928.53;;;15.31;24.68
21826;BME280;11075;47.944;11.776;2022-09-28T06:29:49;92929.03;;;15.99;23.88
21826;BME280;11075;47.944;11.776;2022-09-28T06:32:16;92946.22;;;16.16;23.43
21826;BME280;11075;47.944;11.776;2022-09-28T06:34:46;92949.50;;;16.07;23.75
21826;BME280;11075;47.944;11.776;2022-09-28T06:37:13;92926.75;;;14.93;25.19
21826;BME280;11075;47.944;11.776;2022-09-28T06:39:40;92919.59;;;15.34;24.55
21826;BME280;11075;47.944;11.776;2022-09-28T06:42:07;92936.19;;;16.76;22.96
21826;BME280;11075;47.944;11.776;2022-09-28T06:44:52;92924.19;;;16.34;23.40
21826;BME280;11075;47.944;11.776;2022-09-28T06:47:36;92910.50;;;15.47;24.69
21826;BME280;11075;47.944;11.776;2022-09-28T06:50:15;92899.88;;;15.03;25.65
21826;BME280;11075;47.944;11.776;2022-09-28T06:52:52;92911.28;;;15.71;24.74
21826;BME280;11075;47.944;11.776;2022-09-28T06:55:41;92889.31;;;14.13;26.18
21826;BME280;11075;47.944;11.776;2022-09-28T06:58:10;92884.97;;;13.85;26.68
21826;BME280;11075;47.944;11.776;2022-09-28T07:00:38;92865.25;;;12.81;27.72
21826;BME280;11075;47.944;11.776;2022-09-28T07:03:09;92877.19;;;13.91;26.55
21826;BME280;11075;47.944;11.776;2022-09-28T07:06:03;92858.63;;;13.45;27.16
21826;BME280;11075;47.944;11.776;2022-09-28T07:08:36;92879.41;;;14.37;26.28
21826;BME280;11075;47.944;11.776;2022-09-28T07:11:22;92911.41;;;16.11;24.02
21826;BME280;11075;47.944;11.776;2022-09-28T07:14:10;92931.94;;;17.14;23.34
21826;BME280;11075;47.944;11.776;2022-09-28T07:16:55;92920.34;;;16.31;24.44
21826;BME280;11075;47.944;11.776;2022-09-28T07:19:38;92906.19;;;14.96;25.67
21826;BME280;11075;47.944;11.776;2022-09-28T07:22:05;92895.09;;;14.15;26.83
21826;BME280;11075;47.944;11.776;2022-09-28T07:24:32;92910.31;;;15.31;25.33
21826;BME280;11075;47.944;11.776;2022-09-28T07:27:37;92917.94;;;15.90;24.79
21826;BME280;11075;47.944;11.776;2022-09-28T07:30:14;92920.06;;;15.55;25.45
21826;BME280;11075;47.944;11.776;2022-09-28T07:33:12;92896.75;;;14.06;26.83
21826;BME280;11075;47.944;11.776;2022-09-28T07:35:54;92878.72;;;13.92;26.79
21826;BME280;11075;47.944;11.776;2022-09-28T07:38:25;92879.72;;;13.67;27.48
21826;BME280;11075;47.944;11.776;2022-09-28T07:40:55;92889.34;;;13.72;27.39
21826;BME280;11075;47.944;11.776;2022-09-28T07:43:42;92892.19;;;13.99;27.23
21826;BME280;11075;47.944;11.776;2022-09-28T07:46:10;92896.16;;;13.39;27.78
21826;BME280;11075;47.944;11.776;2022-09-28T07:48:47;92902.31;;;13.43;27.73
21826;BME280;11075;47.944;11.776;2022-09-28T07:51:37;92888.22;;;12.37;28.74
21826;BME280;11075;47.944;11.776;2022-09-28T07:54:16;92892.50;;;13.63;27.77
21826;BME280;11075;47.944;11.776;2022-09-28T07:57:01;92873.25;;;12.95;28.66
21826;BME280;11075;47.944;11.776;2022-09-28T07:59:49;92876.13;;;13.33;28.10
21826;BME280;11075;47.944;11.776;2022-09-28T08:02:42;92879.66;;;13.75;27.85
21826;BME280;11075;47.944;11.776;2022-09-28T08:05:10;92901.34;;;14.46;26.81
21826;BME280;11075;47.944;11.776;2022-09-28T08:07:37;92896.25;;;14.82;26.88
21826;BME280;11075;47.944;11.776;2022-09-28T08:10:08;92893.56;;;14.52;26.93
21826;BME280;11075;47.944;11.776;2022-09-28T08:12:58;92872.50;;;12.98;29.46
21826;BME280;11075;47.944;11.776;2022-09-28T08:15:53;92897.81;;;14.15;27.41
21826;BME280;11075;47.944;11.776;2022-09-28T08:18:33;92862.06;;;13.00;28.84
21826;BME280;11075;47.944;11.776;2022-09-28T08:21:02;92882.41;;;14.46;27.57
21826;BME280;11075;47.944;11.776;2022-09-28T08:23:49;92915.09;;;14.97;27.06
21826;BME280;11075;47.944;11.776;2022-09-28T08:26:16;92921.59;;;15.03;26.76
21826;BME280;11075;47.944;11.776;2022-09-28T08:28:44;92901.66;;;14.86;27.24
21826;BME280;11075;47.944;11.776;2022-09-28T08:31:41;92920.06;;;15.79;26.00
21826;BME280;11075;47.944;11.776;2022-09-28T08:34:42;92956.78;;;17.69;23.68
21826;BME280;11075;47.944;11.776;2022-09-28T08:37:26;92874.34;;;12.35;30.52
21826;BME280;11075;47.944;11.776;2022-09-28T08:40:19;92914.47;;;15.39;26.83
21826;BME280;11075;47.944;11.776;2022-09-28T08:43:44;92899.28;;;13.82;28.54
21826;BME280;11075;47.944;11.776;2022-09-28T08:46:45;92914.53;;;15.09;26.90
21826;BME280;11075;47.944;11.776;2022-09-28T08:52:21;92894.38;;;12.45;29.54
21826;BME280;11075;47.944;11.776;2022-09-28T08:57:50;92891.03;;;12.96;30.24
21826;BME280;11075;47.944;11.776;2022-09-28T09:00:44;92904.66;;;13.38;29.47
21826;BME280;11075;47.944;11.776;2022-09-28T09:03:15;92896.28;;;13.21;29.97
21826;BME280;11075;47.944;11.776;2022-09-28T09:09:22;92934.75;;;15.31;27.74
21826;BME280;11075;47.944;11.776;2022-09-28T09:12:13;92917.75;;;13.46;29.60
21826;BME280;11075;47.944;11.776;2022-09-28T09:17:37;92946.94;;;14.89;27.66
21826;BME280;11075;47.944;11.776;2022-09-28T09:36:58;92959.28;;;15.51;27.05
21826;BME280;11075;47.944;11.776;2022-09-28T09:46:07;92913.59;;;14.58;29.36
21826;BME280;11075;47.944;11.776;2022-09-28T09:54:08;92929.75;;;15.80;27.59
21826;BME280;11075;47.944;11.776;2022-09-28T09:57:22;92929.41;;;16.01;27.74
21826;BME280;11075;47.944;11.776;2022-09-28T10:00:13;92942.31;;;17.00;26.26
21826;BME280;11075;47.944;11.776;2022-09-28T10:02:52;92919.13;;;14.81;28.39
21826;BME280;11075;47.944;11.776;2022-09-28T10:05:33;92933.72;;;16.22;27.47
21826;BME280;11075;47.944;11.776;2022-09-28T10:10:37;92922.09;;;15.21;28.27
21826;BME280;11075;47.944;11.776;2022-09-28T10:13:08;92957.38;;;17.24;26.03
21826;BME280;11075;47.944;11.776;2022-09-28T10:15:36;92979.06;;;16.25;27.14
21826;BME280;11075;47.944;11.776;2022-09-28T10:18:18;92962.41;;;17.06;27.37
21826;BME280;11075;47.944;11.776;2022-09-28T10:21:04;92991.38;;;17.68;26.63
21826;BME280;11075;47.944;11.776;2022-09-28T10:23:57;92985.69;;;15.74;27.78
21826;BME280;11075;47.944;11.776;2022-09-28T10:26:32;92996.31;;;15.34;27.07
21826;BME280;11075;47.944;11.776;2022-09-28T10:29:12;93041.63;;;17.84;24.28
21826;BME280;11075;47.944;11.776;2022-09-28T10:31:47;92984.66;;;14.73;28.21
21826;BME280;11075;47.944;11.776;2022-09-28T10:34:28;93035.69;;;16.03;26.47
21826;BME280;11075;47.944;11.776;2022-09-28T10:37:01;92967.97;;;13.47;28.99
21826;BME280;11075;47.944;11.776;2022-09-28T10:39:52;92979.44;;;12.99;30.20
21826;BME280;11075;47.944;11.776;2022-09-28T10:42:25;93034.56;;;16.24;26.25
21826;BME280;11075;47.944;11.776;2022-09-28T10:47:43;93044.75;;;16.87;25.20
21826;BME280;11075;47.944;11.776;2022-09-28T10:50:24;93021.88;;;15.37;26.91
21826;BME280;11075;47.944;11.776;2022-09-28T10:53:17;93033.31;;;15.21;26.94
21826;BME280;11075;47.944;11.776;2022-09-28T10:56:27;93074.59;;;16.90;25.00
21826;BME280;11075;47.944;11.776;2022-09-28T10:59:22;93054.03;;;14.25;27.14
21826;BME280;11075;47.944;11.776;2022-09-28T11:04:25;93078.69;;;16.78;24.77
21826;BME280;11075;47.944;11.776;2022-09-28T11:06:55;93038.72;;;14.01;27.48
21826;BME280;11075;47.944;11.776;2022-09-28T11:09:27;93067.91;;;16.75;25.31
21826;BME280;11075;47.944;11.776;2022-09-28T11:12:02;93053.03;;;15.25;26.58
21826;BME280;11075;47.944;11.776;2022-09-28T11:14:35;93052.94;;;15.63;26.68
21826;BME280;11075;47.944;11.776;2022-09-28T11:17:30;93053.34;;;15.31;27.17
21826;BME280;11075;47.944;11.776;2022-09-28T11:22:58;93071.06;;;15.96;25.87
21826;BME280;11075;47.944;11.776;2022-09-28T11:25:31;93086.66;;;17.32;24.89
21826;BME280;11075;47.944;11.776;2022-09-28T11:28:01;93080.88;;;16.87;25.40
21826;BME280;11075;47.944;11.776;2022-09-28T11:33:32;93090.66;;;16.11;25.33
21826;BME280;11075;47.944;11.776;2022-09-28T11:36:41;93094.19;;;17.44;25.13
21826;BME280;11075;47.944;11.776;2022-09-28T11:41:52;93080.03;;;17.89;24.35
21826;BME280;11075;47.944;11.776;2022-09-28T11:50:17;93090.47;;;18.75;24.18
21826;BME280;11075;47.944;11.776;2022-09-28T11:58:03;93057.63;;;17.26;24.79
21826;BME280;11075;47.944;11.776;2022-09-28T12:00:39;93088.72;;;17.84;24.13
21826;BME280;11075;47.944;11.776;2022-09-28T12:03:21;93099.84;;;18.91;23.51
21826;BME280;11075;47.944;11.776;2022-09-28T12:05:58;93052.50;;;16.88;25.73
21826;BME280;11075;47.944;11.776;2022-09-28T12:08:29;93065.81;;;17.82;24.13
21826;BME280;11075;47.944;11.776;2022-09-28T12:11:14;93051.25;;;17.88;25.04
21826;BME280;11075;47.944;11.776;2022-09-28T12:14:25;93028.06;;;15.37;27.21
21826;BME280;11075;47.944;11.776;2022-09-28T12:17:02;93043.66;;;17.24;25.50
21826;BME280;11075;47.944;11.776;2022-09-28T12:19:46;93023.78;;;14.72;27.35
21826;BME280;11075;47.944;11.776;2022-09-28T12:22:18;93045.06;;;15.72;26.47
21826;BME280;11075;47.944;11.776;2022-09-28T12:24:53;93042.44;;;16.42;26.73
21826;BME280;11075;47.944;11.776;2022-09-28T12:27:40;93064.25;;;18.49;24.39
21826;BME280;11075;47.944;11.776;2022-09-28T12:30:20;93076.63;;;19.28;24.04
21826;BME280;11075;47.944;11.776;2022-09-28T12:33:09;93065.19;;;16.95;25.63
21826;BME280;11075;47.944;11.776;2022-09-28T12:56:04;93064.19;;;17.84;25.05
21826;BME280;11075;47.944;11.776;2022-09-28T13:04:53;93050.53;;;18.36;24.99
21826;BME280;11075;47.944;11.776;2022-09-28T13:07:54;93084.38;;;19.00;24.06
21826;BME280;11075;47.944;11.776;2022-09-28T13:10:33;93086.47;;;19.67;23.42
21826;BME280;11075;47.944;11.776;2022-09-28T13:20:43;93027.06;;;16.08;27.51
21826;BME280;11075;47.944;11.776;2022-09-28T13:23:29;93033.97;;;17.03;26.09
21826;BME280;11075;47.944;11.776;2022-09-28T13:28:41;93047.00;;;17.87;25.19
21826;BME280;11075;47.944;11.776;2022-09-28T13:31:09;93061.56;;;17.61;24.56
21826;BME280;11075;47.944;11.776;2022-09-28T13:33:42;93020.66;;;17.28;26.63
21826;BME280;11075;47.944;11.776;2022-09-28T13:38:59;93036.94;;;17.48;25.57
21826;BME280;11075;47.944;11.776;2022-09-28T13:41:38;93051.28;;;19.27;23.87
21826;BME280;11075;47.944;11.776;2022-09-28T13:49:39;93088.44;;;19.08;23.64
21826;BME280;11075;47.944;11.776;2022-09-28T13:57:52;93082.31;;;19.62;23.26
21826;BME280;11075;47.944;11.776;2022-09-28T14:00:37;93080.41;;;19.47;23.16
21826;BME280;11075;47.944;11.776;2022-09-28T14:16:34;93073.69;;;18.61;23.67
21826;BME280;11075;47.944;11.776;2022-09-28T14:19:11;93064.47;;;18.06;24.71
21826;BME280;11075;47.944;11.776;2022-09-28T14:25:32;93053.63;;;16.91;24.65
21826;BME280;11075;47.944;11.776;2022-09-28T14:27:46;93069.50;;;19.59;22.67
21826;BME280;11075;47.944;11.776;2022-09-28T14:30:21;93053.31;;;19.39;23.39
21826;BME280;11075;47.944;11.776;2022-09-28T14:32:54;93058.44;;;18.63;24.25
21826;BME280;11075;47.944;11.776;2022-09-28T14:35:43;93028.78;;;16.45;26.09
21826;BME280;11075;47.944;11.776;2022-09-28T14:38:15;93033.97;;;15.86;26.63
21826;BME280;11075;47.944;11.776;2022-09-28T14:41:05;93043.44;;;17.34;25.14
21826;BME280;11075;47.944;11.776;2022-09-28T14:46:30;93066.94;;;18.00;24.67
21826;BME280;11075;47.944;11.776;2022-09-28T14:48:59;93055.06;;;15.17;26.84
21826;BME280;11075;47.944;11.776;2022-09-28T14:56:42;93076.34;;;15.53;25.18
21826;BME280;11075;47.944;11.776;2022-09-28T14:59:29;93068.91;;;14.51;26.12
21826;BME280;11075;47.944;11.776;2022-09-28T15:05:01;93100.44;;;16.55;24.63
21826;BME280;11075;47.944;11.776;2022-09-28T15:07:48;93081.88;;;15.73;25.50
21826;BME280;11075;47.944;11.776;2022-09-28T15:12:54;93074.66;;;14.09;26.99
21826;BME280;11075;47.944;11.776;2022-09-28T15:15:37;93074.22;;;15.34;26.10
21826;BME280;11075;47.944;11.776;2022-09-28T15:20:46;93104.59;;;16.63;24.88
21826;BME280;11075;47.944;11.776;2022-09-28T15:23:36;93089.94;;;14.78;26.87
21826;BME280;11075;47.944;11.776;2022-09-28T15:26:06;93100.19;;;15.01;25.83
21826;BME280;11075;47.944;11.776;2022-09-28T15:28:43;93115.56;;;16.56;24.26
21826;BME280;11075;47.944;11.776;2022-09-28T15:31:17;93145.00;;;17.08;23.98
21826;BME280;11075;47.944;11.776;2022-09-28T15:33:45;93097.22;;;14.43;26.51
21826;BME280;11075;47.944;11.776;2022-09-28T15:36:42;93092.50;;;14.51;26.78
21826;BME280;11075;47.944;11.776;2022-09-28T15:39:14;93137.66;;;17.28;23.86
21826;BME280;11075;47.944;11.776;2022-09-28T15:41:46;93125.22;;;15.80;24.63
21826;BME280;11075;47.944;11.776;2022-09-28T15:44:30;93120.00;;;16.46;24.17
21826;BME280;11075;47.944;11.776;2022-09-28T15:47:13;93125.13;;;15.87;25.32
21826;BME280;11075;47.944;11.776;2022-09-28T15:49:45;93131.41;;;15.80;24.94
21826;BME280;11075;47.944;11.776;2022-09-28T15:54:52;93144.56;;;17.33;23.65
21826;BME280;11075;47.944;11.776;2022-09-28T15:57:45;93142.22;;;16.41;24.26
21826;BME280;11075;47.944;11.776;2022-09-28T16:05:45;93153.19;;;16.84;23.59
21826;BME280;11075;47.944;11.776;2022-09-28T16:08:20;93159.53;;;16.51;23.70
21826;BME280;11075;47.944;11.776;2022-09-28T16:10:56;93182.63;;;17.76;22.84
21826;BME280;11075;47.944;11.776;2022-09-28T16:13:28;93169.50;;;17.91;22.61
21826;BME280;11075;47.944;11.776;2022-09-28T16:15:57;93174.16;;;17.31;23.73
21826;BME280;11075;47.944;11.776;2022-09-28T16:18:27;93171.31;;;17.97;22.87
21826;BME280;11075;47.944;11.776;2022-09-28T16:20:58;93176.53;;;17.68;22.92
21826;BME280;11075;47.944;11.776;2022-09-28T16:23:49;93162.06;;;16.89;23.60
21826;BME280;11075;47.944;11.776;2022-09-28T16:26:28;93176.63;;;17.85;22.48
21826;BME280;11075;47.944;11.776;2022-09-28T16:28:57;93172.75;;;17.23;23.34
21826;BME280;11075;47.944;11.776;2022-09-28T16:31:29;93151.13;;;16.15;24.69
21826;BME280;11075;47.944;11.776;2022-09-28T16:36:45;93158.97;;;15.48;24.71
21826;BME280;11075;47.944;11.776;2022-09-28T16:39:14;93144.84;;;15.91;24.77
21826;BME280;11075;47.944;11.776;2022-09-28T16:41:48;93159.97;;;16.96;23.59
21826;BME280;11075;47.944;11.776;2022-09-28T16:44:26;93171.22;;;17.22;23.03
21826;BME280;11075;47.944;11.776;2022-09-28T16:46:56;93203.31;;;18.65;21.71
21826;BME280;11075;47.944;11.776;2022-09-28T16:49:23;93197.50;;;18.47;22.14
21826;BME280;11075;47.944;11.776;2022-09-28T16:51:51;93190.25;;;17.85;22.57
21826;BME280;11075;47.944;11.776;2022-09-28T16:54:22;93202.88;;;18.51;22.04
21826;BME280;11075;47.944;11.776;2022-09-28T16:57:10;93180.38;;;17.51;23.06